Terminal Aerodrome Forecast
Issued by NWS Charleston, WV

Current Version | Previous Version | Text Only | Print | Product List | Glossary Off
Versions: 1 2 3 4 5 6 7 8 9 10 11 12 13 14 15 16 17 18 19 20 21 22 23 24 25 26 27 28 29 30 31 32 33

000
FTUS41 KRLX 061016 AAC
TAFBKW
TAF AMD
KBKW 061016Z 0610/0706 14013G26KT P6SM -RA OVC040
     FM061300 13016G32KT 5SM -RA OVC015
      TEMPO 0613/0615 2SM -RA OVC007
     FM061500 13016G32KT 3SM -RA OVC025
     FM061800 13015G25KT 4SM -RA OVC015
     FM070000 18009KT 6SM -RA OVC008
     FM070200 26009KT P6SM BKN008=

USA.gov is the U.S. government's official web portal to all federal, state and local government web resources and services.